createdAt,value
2022-09-16T00:02:17.379Z,5.57
2022-09-16T00:05:19.989Z,5.43
2022-09-16T00:08:23.263Z,6.67
2022-09-16T00:11:26.103Z,7.77
2022-09-16T00:14:29.937Z,6.00
2022-09-16T00:17:32.787Z,6.57
2022-09-16T00:20:35.367Z,9.20
2022-09-16T00:23:38.435Z,5.57
2022-09-16T00:26:41.090Z,9.13
2022-09-16T00:29:44.911Z,5.80
2022-09-16T00:32:47.418Z,6.43
2022-09-16T00:35:49.918Z,6.53
2022-09-16T00:38:54.755Z,5.60
2022-09-16T00:41:57.317Z,7.10
2022-09-16T00:45:03.288Z,7.00
2022-09-16T00:48:08.395Z,6.13
2022-09-16T00:51:12.729Z,9.53
2022-09-16T00:54:17.038Z,5.50
2022-09-16T00:57:19.814Z,6.27
2022-09-16T01:00:23.721Z,6.43
2022-09-16T01:03:27.080Z,7.30
2022-09-16T01:06:30.168Z,5.37
2022-09-16T01:09:33.233Z,10.40
2022-09-16T01:12:37.343Z,7.10
2022-09-16T01:15:48.589Z,5.87
2022-09-16T01:19:01.941Z,9.67
2022-09-16T01:22:17.557Z,9.33
2022-09-16T01:25:38.230Z,7.80
2022-09-16T01:29:07.667Z,9.67
2022-09-16T01:32:15.499Z,5.43
2022-09-16T01:35:27.709Z,5.33
2022-09-16T01:38:50.725Z,8.80
2022-09-16T01:42:05.728Z,6.37
2022-09-16T01:45:17.494Z,9.07
2022-09-16T01:48:27.497Z,6.93
2022-09-16T01:51:36.111Z,6.13
2022-09-16T01:54:42.535Z,8.63
2022-09-16T01:57:53.096Z,5.00
2022-09-16T02:01:03.902Z,4.90
2022-09-16T02:04:14.706Z,5.63
2022-09-16T02:07:20.628Z,4.00
2022-09-16T02:10:27.410Z,5.03
2022-09-16T02:13:34.816Z,5.87
2022-09-16T02:16:43.064Z,13.30
2022-09-16T02:19:53.425Z,7.03
2022-09-16T02:23:01.241Z,5.13
2022-09-16T02:26:07.601Z,7.03
2022-09-16T02:29:15.351Z,8.53
2022-09-16T02:32:20.420Z,7.57
2022-09-16T02:35:28.067Z,7.30
2022-09-16T02:38:35.960Z,5.13
2022-09-16T02:41:40.586Z,7.40
2022-09-16T02:44:44.331Z,11.37
2022-09-16T02:47:55.327Z,7.30
2022-09-16T02:51:06.533Z,6.10
2022-09-16T02:54:15.727Z,4.63
2022-09-16T02:57:18.749Z,5.87
2022-09-16T03:00:22.247Z,5.63
2022-09-16T03:03:24.949Z,4.43
2022-09-16T03:06:30.007Z,5.03
2022-09-16T03:09:35.739Z,6.00
2022-09-16T03:12:49.501Z,7.67
2022-09-16T03:16:04.200Z,4.27
2022-09-16T03:19:16.232Z,6.70
2022-09-16T03:22:30.443Z,10.33
2022-09-16T03:25:44.143Z,3.20
2022-09-16T03:28:55.793Z,4.60
2022-09-16T03:32:06.003Z,5.10
2022-09-16T03:35:12.922Z,4.60
2022-09-16T03:38:19.407Z,6.93
2022-09-16T03:41:23.037Z,8.20
2022-09-16T03:44:33.068Z,7.40
2022-09-16T03:47:35.875Z,5.40
2022-09-16T03:50:38.490Z,5.30
2022-09-16T03:53:42.421Z,7.60
2022-09-16T03:56:45.122Z,6.37
2022-09-16T03:59:47.649Z,10.73
2022-09-16T04:02:50.320Z,6.67
2022-09-16T04:05:54.499Z,5.33
2022-09-16T04:08:59.322Z,6.63
2022-09-16T04:12:02.475Z,5.67
2022-09-16T04:15:05.713Z,3.97
2022-09-16T04:18:08.521Z,7.77
2022-09-16T04:21:10.993Z,5.73
2022-09-16T04:24:15.055Z,6.63
2022-09-16T04:27:17.530Z,7.10
2022-09-16T04:30:20.428Z,9.67
2022-09-16T04:33:23.203Z,6.93
2022-09-16T04:36:25.783Z,8.73
2022-09-16T04:39:29.602Z,4.70
2022-09-16T04:42:32.153Z,5.37
2022-09-16T04:45:34.633Z,4.90
2022-09-16T04:48:37.718Z,5.10
2022-09-16T04:51:40.364Z,8.83
2022-09-16T04:54:44.252Z,3.20
2022-09-16T04:57:46.722Z,6.33
2022-09-16T05:00:49.209Z,5.87
2022-09-16T05:03:53.830Z,5.87
2022-09-16T05:06:56.350Z,5.47
2022-09-16T05:10:00.190Z,8.07
2022-09-16T05:13:02.699Z,2.80
2022-09-16T05:16:07.276Z,3.93
2022-09-16T05:19:12.308Z,4.97
2022-09-16T05:22:14.817Z,4.30
2022-09-16T05:25:18.915Z,4.73
2022-09-16T05:28:21.687Z,9.13
2022-09-16T05:31:27.476Z,9.43
2022-09-16T05:34:30.017Z,5.83
2022-09-16T05:37:32.525Z,6.47
2022-09-16T05:40:36.472Z,6.17
2022-09-16T05:43:39.679Z,10.63
2022-09-16T05:46:43.665Z,6.47
2022-09-16T05:49:46.151Z,6.60
2022-09-16T05:52:48.629Z,9.17
2022-09-16T05:56:00.866Z,8.10
2022-09-16T05:59:03.541Z,5.93
2022-09-16T06:02:06.172Z,10.60
2022-09-16T06:05:09.497Z,4.53
2022-09-16T06:08:12.010Z,6.47
2022-09-16T06:11:16.022Z,7.67
2022-09-16T06:14:19.754Z,6.27
2022-09-16T06:17:22.267Z,10.20
2022-09-16T06:20:24.901Z,6.53
2022-09-16T06:23:27.386Z,6.13
2022-09-16T06:26:31.508Z,7.40
2022-09-16T06:29:34.058Z,6.73
2022-09-16T06:32:36.551Z,8.33
2022-09-16T06:35:39.133Z,7.83
2022-09-16T06:38:42.192Z,8.63
2022-09-16T06:41:46.773Z,7.77
2022-09-16T06:44:49.251Z,9.10
2022-09-16T06:47:51.738Z,8.93
2022-09-16T06:51:00.884Z,8.07
2022-09-16T06:54:05.423Z,6.63
2022-09-16T06:57:12.276Z,11.20
2022-09-16T07:00:15.597Z,5.60
2022-09-16T07:03:18.281Z,6.87
2022-09-16T07:06:26.645Z,5.07
2022-09-16T07:09:41.209Z,11.40
2022-09-16T07:12:45.053Z,7.13
2022-09-16T07:16:11.851Z,8.47
2022-09-16T07:19:10.851Z,7.93
2022-09-16T07:22:13.468Z,6.73
2022-09-16T07:25:16.205Z,6.50
2022-09-16T07:28:20.071Z,11.20
2022-09-16T07:31:27.552Z,8.17
2022-09-16T07:34:30.913Z,8.70
2022-09-16T07:37:33.401Z,12.73
2022-09-16T07:40:35.939Z,7.53
2022-09-16T07:43:40.421Z,9.00
2022-09-16T07:46:43.624Z,9.47
2022-09-16T07:49:46.791Z,6.80
2022-09-16T07:52:49.271Z,12.30
2022-09-16T07:55:51.879Z,4.07
2022-09-16T07:58:56.603Z,7.60
2022-09-16T08:01:59.220Z,6.03
2022-09-16T08:05:01.787Z,6.80
2022-09-16T08:08:04.390Z,10.80
2022-09-16T08:11:09.005Z,6.17
2022-09-16T08:14:12.862Z,11.60
2022-09-16T08:17:16.133Z,9.30
2022-09-16T08:20:18.818Z,9.83
2022-09-16T08:23:21.323Z,11.60
2022-09-16T08:26:24.295Z,12.60
2022-09-16T08:29:28.173Z,12.97
2022-09-16T08:32:30.931Z,10.57
2022-09-16T08:35:33.478Z,10.33
2022-09-16T08:38:36.077Z,7.47
2022-09-16T08:42:29.518Z,7.90
2022-09-16T08:45:41.412Z,6.60
2022-09-16T08:48:53.860Z,10.43
2022-09-16T08:51:57.947Z,9.13
2022-09-16T08:55:03.546Z,10.07
2022-09-16T08:58:12.607Z,10.97
2022-09-16T09:01:22.420Z,8.93
2022-09-16T09:04:25.182Z,8.23
2022-09-16T09:07:38.092Z,8.73
2022-09-16T09:10:46.827Z,6.87
2022-09-16T09:14:01.590Z,7.80
2022-09-16T09:17:16.982Z,8.33
2022-09-16T09:20:30.638Z,10.13
2022-09-16T09:23:50.156Z,10.67
2022-09-16T09:26:59.588Z,5.00
2022-09-16T09:30:11.317Z,10.30
2022-09-16T09:33:47.366Z,11.23
2022-09-16T09:37:03.252Z,6.57
2022-09-16T09:40:14.405Z,9.43
2022-09-16T09:43:21.381Z,10.07
2022-09-16T09:46:29.089Z,12.83
2022-09-16T09:49:36.603Z,9.33
2022-09-16T09:52:47.362Z,10.00
2022-09-16T09:55:56.100Z,8.60
2022-09-16T09:59:06.847Z,7.60
2022-09-16T10:02:16.918Z,7.87
2022-09-16T10:05:24.062Z,6.60
2022-09-16T10:08:30.644Z,4.67
2022-09-16T10:11:33.652Z,6.57
2022-09-16T10:14:39.011Z,6.47
2022-09-16T10:17:50.036Z,7.57
2022-09-16T10:21:04.290Z,7.27
2022-09-16T10:24:06.955Z,7.50
2022-09-16T10:27:22.231Z,8.87
2022-09-16T10:30:25.072Z,5.80
2022-09-16T10:33:31.434Z,9.27
2022-09-16T10:36:36.794Z,8.50
2022-09-16T10:39:41.212Z,7.33
2022-09-16T10:42:48.328Z,7.00
2022-09-16T10:45:53.790Z,4.47
2022-09-16T10:49:01.419Z,5.17
2022-09-16T10:52:17.255Z,8.27
2022-09-16T10:55:28.983Z,5.77
2022-09-16T10:58:31.603Z,6.70
2022-09-16T11:01:46.384Z,7.23
2022-09-16T11:05:02.327Z,6.90
2022-09-16T11:08:13.771Z,4.60
2022-09-16T11:11:40.485Z,4.93
2022-09-16T11:14:52.618Z,3.70
2022-09-16T11:18:09.946Z,6.37
2022-09-16T11:21:28.602Z,8.80
2022-09-16T11:25:00.272Z,5.27
2022-09-16T11:28:18.364Z,8.23
2022-09-16T11:31:33.166Z,5.60
2022-09-16T11:34:53.673Z,4.27
2022-09-16T11:38:04.501Z,6.40
2022-09-16T11:41:16.984Z,4.07
2022-09-16T11:44:39.179Z,8.43
2022-09-16T11:47:58.171Z,5.83
2022-09-16T11:51:07.967Z,5.30
2022-09-16T11:54:31.057Z,7.10
2022-09-16T11:57:38.929Z,6.93
2022-09-16T12:00:42.489Z,8.70
2022-09-16T12:03:50.635Z,5.17
2022-09-16T12:06:58.702Z,8.67
2022-09-16T12:10:07.247Z,7.63
2022-09-16T12:13:16.302Z,7.23
2022-09-16T12:16:27.075Z,6.37
2022-09-16T12:19:37.352Z,6.73
2022-09-16T12:22:45.692Z,10.23
2022-09-16T12:26:01.931Z,5.67
2022-09-16T12:29:12.700Z,7.17
2022-09-16T12:32:20.743Z,7.33
2022-09-16T12:35:29.392Z,4.70
2022-09-16T12:38:32.324Z,7.67
2022-09-16T12:41:51.550Z,7.13
2022-09-16T12:45:25.009Z,11.37
2022-09-16T12:48:49.007Z,7.30
2022-09-16T12:52:22.693Z,12.33
2022-09-16T12:55:50.132Z,10.00
2022-09-16T12:59:14.933Z,11.13
2022-09-16T13:02:21.703Z,7.50
2022-09-16T13:05:33.115Z,13.63
2022-09-16T13:08:37.335Z,13.30
2022-09-16T13:15:07.070Z,15.50
2022-09-16T13:18:26.510Z,14.03
2022-09-16T13:21:39.231Z,8.90
2022-09-16T13:24:46.431Z,8.70
2022-09-16T13:28:01.554Z,8.73
2022-09-16T13:31:34.016Z,8.10
2022-09-16T13:34:38.319Z,9.20
2022-09-16T13:37:40.872Z,7.37
2022-09-16T13:40:54.520Z,11.20
2022-09-16T13:43:57.414Z,11.03
2022-09-16T13:47:17.647Z,17.30
2022-09-16T13:50:26.333Z,7.17
2022-09-16T13:53:31.838Z,8.83
2022-09-16T13:56:56.582Z,4.23
2022-09-16T14:00:08.666Z,4.77
2022-09-16T14:03:42.871Z,8.40
2022-09-16T14:07:01.321Z,14.97
2022-09-16T14:10:12.810Z,9.57
2022-09-16T14:13:18.458Z,6.03
2022-09-16T14:16:24.965Z,6.27
2022-09-16T14:19:29.674Z,8.67
2022-09-16T14:22:33.737Z,9.97
2022-09-16T14:25:38.955Z,5.23
2022-09-16T14:28:41.810Z,8.20
2022-09-16T14:31:45.303Z,4.80
2022-09-16T14:34:50.317Z,7.77
2022-09-16T14:37:57.841Z,6.10
2022-09-16T14:41:00.526Z,5.33
2022-09-16T14:44:11.085Z,8.70
2022-09-16T14:47:29.645Z,5.83
2022-09-16T14:50:37.553Z,9.40
2022-09-16T14:53:49.804Z,5.93
2022-09-16T14:57:06.981Z,3.50
2022-09-16T15:00:16.874Z,7.10
2022-09-16T15:03:24.653Z,7.07
2022-09-16T15:06:34.316Z,9.37
2022-09-16T15:09:45.454Z,7.37
2022-09-16T15:12:52.780Z,20.60
2022-09-16T15:15:58.108Z,19.87
2022-09-16T15:19:02.911Z,7.30
2022-09-16T15:22:11.047Z,9.00
2022-09-16T15:25:21.248Z,12.87
2022-09-16T15:28:23.784Z,9.87
2022-09-16T15:31:32.086Z,8.40
2022-09-16T15:34:34.729Z,8.10
2022-09-16T15:37:37.247Z,9.07
2022-09-16T15:40:41.894Z,6.13
2022-09-16T15:43:47.059Z,7.50
2022-09-16T15:46:50.294Z,6.37
2022-09-16T15:49:56.799Z,7.87
2022-09-16T15:53:03.605Z,6.67
2022-09-16T15:56:18.100Z,8.23
2022-09-16T15:59:26.804Z,5.47
2022-09-16T16:02:35.847Z,9.60
2022-09-16T16:05:39.589Z,6.53
2022-09-16T16:08:45.936Z,8.20
2022-09-16T16:11:50.598Z,9.00
2022-09-16T16:14:53.109Z,7.90
2022-09-16T16:17:58.773Z,3.80
2022-09-16T16:21:02.710Z,4.70
2022-09-16T16:24:05.267Z,2.73
2022-09-16T16:27:10.157Z,4.00
2022-09-16T16:30:13.597Z,5.90
2022-09-16T16:33:16.082Z,6.63
2022-09-16T16:36:20.294Z,5.33
2022-09-16T16:39:24.304Z,5.37
2022-09-16T16:42:28.819Z,7.57
2022-09-16T16:45:31.986Z,7.60
2022-09-16T16:48:35.685Z,7.90
2022-09-16T16:51:38.655Z,8.37
2022-09-16T16:54:43.261Z,14.33
2022-09-16T16:57:47.215Z,11.90
2022-09-16T17:00:49.688Z,9.70
2022-09-16T17:03:52.896Z,7.03
2022-09-16T17:07:21.469Z,11.13
2022-09-16T17:10:17.937Z,6.57
2022-09-16T17:13:21.761Z,12.00
2022-09-16T17:16:25.613Z,13.60
2022-09-16T17:19:28.241Z,11.27
2022-09-16T17:22:30.739Z,16.20
2022-09-16T17:25:34.702Z,16.53
2022-09-16T17:28:40.093Z,38.90
2022-09-16T17:31:43.195Z,46.37
2022-09-16T17:34:45.862Z,27.57
2022-09-16T17:37:48.332Z,21.23
2022-09-16T17:40:50.848Z,15.77
2022-09-16T17:43:55.354Z,17.57
2022-09-16T17:46:57.825Z,26.10
2022-09-16T17:50:03.530Z,18.50
2022-09-16T17:53:06.011Z,12.60
2022-09-16T17:56:10.968Z,19.43
2022-09-16T17:59:17.881Z,13.37
2022-09-16T18:02:22.251Z,18.73
2022-09-16T18:05:29.318Z,17.13
2022-09-16T18:08:32.561Z,14.93
2022-09-16T18:11:35.536Z,16.27
2022-09-16T18:14:39.362Z,19.57
2022-09-16T18:17:42.019Z,13.33
2022-09-16T18:20:44.622Z,17.37
2022-09-16T18:23:49.596Z,15.10
2022-09-16T18:26:52.217Z,15.07
2022-09-16T18:29:57.726Z,13.47
2022-09-16T18:33:00.201Z,14.70
2022-09-16T18:36:05.048Z,15.40
2022-09-16T18:39:11.219Z,17.33
2022-09-16T18:42:13.927Z,16.80
2022-09-16T18:45:17.993Z,13.73
2022-09-16T18:48:20.466Z,18.37
2022-09-16T18:51:24.616Z,17.20
2022-09-16T18:54:29.464Z,17.00
2022-09-16T18:57:31.950Z,18.60
2022-09-16T19:00:36.530Z,12.10
2022-09-16T19:03:39.004Z,14.50
2022-09-16T19:06:43.400Z,13.50
2022-09-16T19:09:46.729Z,14.53
2022-09-16T19:12:49.197Z,15.83
2022-09-16T19:15:56.765Z,28.07
2022-09-16T19:19:00.823Z,11.17
2022-09-16T19:22:05.791Z,11.40
2022-09-16T19:25:08.781Z,13.40
2022-09-16T19:28:11.270Z,14.80
2022-09-16T19:31:15.655Z,9.57
2022-09-16T19:34:18.569Z,11.50
2022-09-16T19:37:21.626Z,30.87
2022-09-16T19:40:24.171Z,14.70
2022-09-16T19:43:26.707Z,12.77
2022-09-16T19:46:33.986Z,16.87
2022-09-16T19:49:36.480Z,22.27
2022-09-16T19:52:40.582Z,19.90
2022-09-16T19:55:43.364Z,16.77
2022-09-16T19:58:45.837Z,12.87
2022-09-16T20:01:50.099Z,15.27
2022-09-16T20:04:52.627Z,12.73
2022-09-16T20:07:55.207Z,26.77
2022-09-16T20:11:03.542Z,15.80
2022-09-16T20:14:07.413Z,15.70
2022-09-16T20:17:11.298Z,9.87
2022-09-16T20:20:13.823Z,9.90
2022-09-16T20:23:16.337Z,13.07
2022-09-16T20:26:20.214Z,8.80
2022-09-16T20:29:22.712Z,11.07
2022-09-16T20:32:26.748Z,14.77
2022-09-16T20:35:29.229Z,11.20
2022-09-16T20:38:31.992Z,11.00
2022-09-16T20:41:36.280Z,13.67
2022-09-16T20:44:38.752Z,13.90
2022-09-16T20:47:42.588Z,12.87
2022-09-16T20:50:45.100Z,13.30
2022-09-16T20:53:52.030Z,9.77
2022-09-16T20:56:54.772Z,9.87
2022-09-16T20:59:57.518Z,10.23
2022-09-16T21:03:01.376Z,10.87
2022-09-16T21:06:06.682Z,14.37
2022-09-16T21:09:12.313Z,17.20
2022-09-16T21:12:16.952Z,9.80
2022-09-16T21:15:19.599Z,11.87
2022-09-16T21:18:23.505Z,14.53
2022-09-16T21:21:27.657Z,12.33
2022-09-16T21:24:31.960Z,12.17
2022-09-16T21:27:34.558Z,11.73
2022-09-16T21:30:37.042Z,11.33
2022-09-16T21:33:42.493Z,18.53
2022-09-16T21:36:45.971Z,11.60
2022-09-16T21:39:48.780Z,10.17
2022-09-16T21:42:51.312Z,11.00
2022-09-16T21:45:54.137Z,25.70
2022-09-16T21:49:03.140Z,9.53
2022-09-16T21:52:05.845Z,11.63
2022-09-16T21:55:09.071Z,12.50
2022-09-16T21:58:11.928Z,15.47
2022-09-16T22:01:16.806Z,12.40
2022-09-16T22:04:22.714Z,7.87
2022-09-16T22:07:25.257Z,9.97
2022-09-16T22:10:28.022Z,9.83
2022-09-16T22:13:31.562Z,11.83
2022-09-16T22:16:37.097Z,13.83
2022-09-16T22:19:40.965Z,15.17
2022-09-16T22:22:43.573Z,15.33
2022-09-16T22:25:46.429Z,14.07
2022-09-16T22:28:49.868Z,13.50
2022-09-16T22:31:52.448Z,10.53
2022-09-16T22:34:56.392Z,13.80
2022-09-16T22:37:58.883Z,11.70
2022-09-16T22:41:01.503Z,12.60
2022-09-16T22:44:04.619Z,16.97
2022-09-16T22:47:07.712Z,12.67
2022-09-16T22:50:11.594Z,18.20
2022-09-16T22:53:14.079Z,10.47
2022-09-16T22:56:18.906Z,14.40
2022-09-16T22:59:21.782Z,12.23
2022-09-16T23:02:24.309Z,12.20
2022-09-16T23:05:28.448Z,10.87
2022-09-16T23:08:31.819Z,15.07
2022-09-16T23:11:36.133Z,13.67
2022-09-16T23:14:38.633Z,19.83
2022-09-16T23:17:41.497Z,16.83
2022-09-16T23:20:45.338Z,24.17
2022-09-16T23:23:49.410Z,15.60
2022-09-16T23:26:52.015Z,24.67
2022-09-16T23:29:54.601Z,18.63
2022-09-16T23:32:57.271Z,18.60
2022-09-16T23:36:01.593Z,20.30
2022-09-16T23:39:05.350Z,21.50
2022-09-16T23:42:07.991Z,24.07
2022-09-16T23:45:10.925Z,26.00
2022-09-16T23:48:14.229Z,20.37
2022-09-16T23:51:21.062Z,20.03
2022-09-16T23:54:26.010Z,25.37
2022-09-16T23:57:28.503Z,30.47
